Powell, WY (82435)

09:28 PM MST die 22o November, anno 2014 (GMT -0700)
Crestview Estates | Change Station
CLOSE
Current Station
Personal Weather Stations
Location: Powell, WY
Elevation: 4507 ft
Nearby Weather Stations

Elev 4507 ft 44.75 °N, 108.82 °W | Updated 3 seconds ago

Serena
Serena
36.3 °F
Feels Like 25 °F
N
24.2
Ventus Variabilis Ventus from Zephyrus
Gusts 24.2 mph

Hodie
High -- | Low -- °F
--% Chance of Precip.
Yesterday
High -- | Low -- °F
Precip. -- in
7:21 AM 4:40 PM
New, 1% visible
Pressio 29.59 in
Visibilitas 10.0 milia passuum
Clouds Serena
Frigus Venti 25 °F
Frigus in quo Ros apparet 15 °F
Umor 41%
Rainfall 0.01 in
Snow Depth Not available.
UV 0 out of 12
Pollen .10 out of 12
Air Quality Not available.
Flu Activity Not available.
METAR KCOD 230415Z 31006G28KT 260V330 10SM CLR 03/M13 A2959 RMK AO1

More Conditions Fewer Conditions

Pressio 29.59 in
Visibilitas 10.0 milia passuum
Clouds Serena
Frigus Venti 25 °F
Frigus in quo Ros apparet 15 °F
Umor 41%
Rainfall 0.01 in
Snow Depth Not available.
UV 0 out of 12
Pollen .10 out of 12
Air Quality Not available.
Flu Activity Not available.
METAR KCOD 230415Z 31006G28KT 260V330 10SM CLR 03/M13 A2959 RMK AO1

More Conditions Fewer Conditions

10-Day Weather Forecast

Almanac

Astronomy

Nov. 22, 2014 Rise Set
Actual Time
Civil Twilight
Nautical Twilight
Astronomical Twilight
Moon
Length Of Visible Light
Length of Day
Tomorrow will be .
, % of the Moon is Illuminated

Today's Extremes

State Highs State Lows

Community

WunderPhotos

Upload Photos

1,772,997 photos uploaded!

WunderBlogs® & News

Nearby

Air Quality

  Air Quality AQ Index Pollutant
Not available.

Snow Depth

Station Depth Elevation

Earthquake Activity

City Distance Mag. Time & Date
Minimum magnitude displayed is 2.5.

Coastal Water Temperatures

Locus Calor

Nearby Weather Stations